PRIVATE WETTERSTATION BILLIGHEIM-ALLFELD                       ZURCK
Wetterdaten: Freitag, 12.02.2016
Datum Zeit Temp. A. Temp. A. min Temp. A. max Feuchte A. Luftdruck Regen Wind Richtung Richtung Sonnenschein ET Solar Taupunkt Windchill Windben Empfang
12.02.2016 00:00 2,4 C 2,4 C 2,4 C 92 % 1006,3 hPa 0,0 l/m 0,0 km/h (0 Bft) N 0 0 min 0,000 mm 0 W/m 1,2 C 2,4 C 0,0 km/h (0 Bft) 100 %
12.02.2016 00:10 2,4 C 2,3 C 2,4 C 92 % 1006,1 hPa 0,0 l/m 0,0 km/h (0 Bft) N 0 0 min 0,000 mm 0 W/m 1,2 C 2,4 C 0,0 km/h (0 Bft) 100 %
12.02.2016 00:20 2,4 C 2,4 C 2,4 C 91 % 1006,1 hPa 0,0 l/m 0,0 km/h (0 Bft) N 0 0 min 0,000 mm 0 W/m 1,1 C 2,4 C 0,0 km/h (0 Bft) 100 %
12.02.2016 00:30 2,4 C 2,4 C 2,4 C 91 % 1006,0 hPa 0,0 l/m 0,0 km/h (0 Bft) N 0 0 min 0,000 mm 0 W/m 1,1 C 2,4 C 0,0 km/h (0 Bft) 100 %
12.02.2016 00:40 2,4 C 2,3 C 2,4 C 91 % 1006,0 hPa 0,0 l/m 0,0 km/h (0 Bft) N 0 0 min 0,000 mm 0 W/m 1,1 C 2,4 C 0,0 km/h (0 Bft) 100 %
12.02.2016 00:50 2,3 C 2,3 C 2,4 C 91 % 1006,0 hPa 0,0 l/m 0,0 km/h (0 Bft) N 0 0 min 0,000 mm 0 W/m 1,0 C 2,3 C 0,0 km/h (0 Bft) 100 %
12.02.2016 01:00 2,3 C 2,3 C 2,4 C 91 % 1006,0 hPa 0,0 l/m 0,0 km/h (0 Bft) N 0 0 min 0,000 mm 0 W/m 1,0 C 2,3 C 0,0 km/h (0 Bft) 100 %
12.02.2016 01:10 2,0 C 2,0 C 2,3 C 90 % 1006,0 hPa 0,0 l/m 0,0 km/h (0 Bft) N 0 0 min 0,000 mm 0 W/m 0,5 C 2,0 C 0,0 km/h (0 Bft) 100 %
12.02.2016 01:20 1,6 C 1,6 C 2,0 C 91 % 1006,1 hPa 0,0 l/m 0,0 km/h (0 Bft) N 0 0 min 0,000 mm 0 W/m 0,3 C 1,6 C 0,0 km/h (0 Bft) 100 %
12.02.2016 01:30 1,4 C 1,4 C 1,6 C 91 % 1006,1 hPa 0,0 l/m 0,0 km/h (0 Bft) N 0 0 min 0,000 mm 0 W/m 0,1 C 1,4 C 0,0 km/h (0 Bft) 100 %
12.02.2016 01:40 1,3 C 1,3 C 1,4 C 92 % 1006,0 hPa 0,0 l/m 0,0 km/h (0 Bft) N 0 0 min 0,000 mm 0 W/m 0,1 C 1,3 C 0,0 km/h (0 Bft) 100 %
12.02.2016 01:50 1,1 C 1,1 C 1,3 C 92 % 1005,9 hPa 0,0 l/m 1,6 km/h (1 Bft) W-SW 247 0 min 0,000 mm 0 W/m -0,1 C 1,1 C 3,2 km/h (1 Bft) 100 %
12.02.2016 02:00 1,1 C 1,1 C 1,1 C 92 % 1006,0 hPa 0,0 l/m 0,0 km/h (0 Bft) N 0 0 min 0,000 mm 0 W/m -0,1 C 1,1 C 0,0 km/h (0 Bft) 100 %
12.02.2016 02:10 1,2 C 1,1 C 1,2 C 92 % 1006,0 hPa 0,0 l/m 0,0 km/h (0 Bft) W-SW 247 0 min 0,000 mm 0 W/m 0,0 C 1,2 C 1,6 km/h (1 Bft) 100 %
12.02.2016 02:20 1,2 C 1,2 C 1,2 C 92 % 1006,1 hPa 0,0 l/m 0,0 km/h (0 Bft) N 0 0 min 0,000 mm 0 W/m 0,0 C 1,2 C 0,0 km/h (0 Bft) 100 %
12.02.2016 02:30 1,2 C 1,2 C 1,2 C 92 % 1006,0 hPa 0,0 l/m 0,0 km/h (0 Bft) N 0 0 min 0,000 mm 0 W/m 0,0 C 1,2 C 0,0 km/h (0 Bft) 100 %
12.02.2016 02:40 1,0 C 1,0 C 1,2 C 92 % 1006,0 hPa 0,0 l/m 0,0 km/h (0 Bft) W-SW 247 0 min 0,000 mm 0 W/m -0,2 C 1,0 C 1,6 km/h (1 Bft) 90 %
12.02.2016 02:50 1,1 C 1,0 C 1,1 C 92 % 1005,8 hPa 0,0 l/m 1,6 km/h (1 Bft) W-SW 247 0 min 0,000 mm 0 W/m -0,1 C 1,1 C 3,2 km/h (1 Bft) 100 %
12.02.2016 03:00 1,1 C 1,1 C 1,1 C 92 % 1005,8 hPa 0,0 l/m 0,0 km/h (0 Bft) W-SW 247 0 min 0,000 mm 0 W/m -0,1 C 1,1 C 1,6 km/h (1 Bft) 100 %
12.02.2016 03:10 1,3 C 1,1 C 1,3 C 92 % 1005,7 hPa 0,0 l/m 0,0 km/h (0 Bft) N 0 0 min 0,000 mm 0 W/m 0,1 C 1,3 C 0,0 km/h (0 Bft) 100 %
12.02.2016 03:20 1,3 C 1,3 C 1,3 C 92 % 1005,7 hPa 0,0 l/m 0,0 km/h (0 Bft) N 0 0 min 0,000 mm 0 W/m 0,1 C 1,3 C 0,0 km/h (0 Bft) 100 %
12.02.2016 03:30 1,1 C 1,1 C 1,3 C 92 % 1005,6 hPa 0,0 l/m 0,0 km/h (0 Bft) W-SW 247 0 min 0,000 mm 0 W/m -0,1 C 1,1 C 1,6 km/h (1 Bft) 100 %
12.02.2016 03:40 0,9 C 0,8 C 1,1 C 92 % 1005,6 hPa 0,0 l/m 0,0 km/h (0 Bft) N 0 0 min 0,000 mm 0 W/m -0,2 C 0,9 C 0,0 km/h (0 Bft) 100 %
12.02.2016 03:50 0,7 C 0,7 C 0,9 C 92 % 1005,6 hPa 0,0 l/m 0,0 km/h (0 Bft) N 0 0 min 0,000 mm 0 W/m -0,4 C 0,7 C 0,0 km/h (0 Bft) 100 %
12.02.2016 04:00 0,7 C 0,7 C 0,7 C 92 % 1005,6 hPa 0,0 l/m 0,0 km/h (0 Bft) N 0 0 min 0,000 mm 0 W/m -0,4 C 0,7 C 0,0 km/h (0 Bft) 89 %
12.02.2016 04:10 0,6 C 0,6 C 0,7 C 92 % 1005,5 hPa 0,0 l/m 0,0 km/h (0 Bft) N 0 0 min 0,000 mm 0 W/m -0,5 C 0,6 C 0,0 km/h (0 Bft) 100 %
12.02.2016 04:20 0,4 C 0,4 C 0,6 C 92 % 1005,5 hPa 0,0 l/m 0,0 km/h (0 Bft) N 0 0 min 0,000 mm 0 W/m -0,7 C 0,4 C 0,0 km/h (0 Bft) 100 %
12.02.2016 04:30 0,2 C 0,2 C 0,4 C 92 % 1005,5 hPa 0,0 l/m 0,0 km/h (0 Bft) N 0 0 min 0,000 mm 0 W/m -0,9 C 0,2 C 0,0 km/h (0 Bft) 100 %
12.02.2016 04:40 -0,2 C -0,2 C 0,2 C 92 % 1005,5 hPa 0,0 l/m 0,0 km/h (0 Bft) N 0 0 min 0,000 mm 0 W/m -1,3 C -0,2 C 0,0 km/h (0 Bft) 100 %
12.02.2016 04:50 -0,5 C -0,5 C -0,2 C 92 % 1005,6 hPa 0,0 l/m 0,0 km/h (0 Bft) N 0 0 min 0,000 mm 0 W/m -1,6 C -0,5 C 0,0 km/h (0 Bft) 99 %
12.02.2016 05:00 -0,6 C -0,6 C -0,5 C 92 % 1005,6 hPa 0,0 l/m 0,0 km/h (0 Bft) N 0 0 min 0,000 mm 0 W/m -1,7 C -0,6 C 0,0 km/h (0 Bft) 100 %
12.02.2016 05:10 -0,4 C -0,5 C -0,4 C 92 % 1005,5 hPa 0,0 l/m 0,0 km/h (0 Bft) N 0 0 min 0,000 mm 0 W/m -1,5 C -0,4 C 0,0 km/h (0 Bft) 100 %
12.02.2016 05:20 -0,3 C -0,4 C -0,3 C 92 % 1005,5 hPa 0,0 l/m 0,0 km/h (0 Bft) N 0 0 min 0,000 mm 0 W/m -1,4 C -0,3 C 0,0 km/h (0 Bft) 99 %
12.02.2016 05:30 -0,3 C -0,3 C -0,3 C 92 % 1005,5 hPa 0,0 l/m 0,0 km/h (0 Bft) N 0 0 min 0,000 mm 0 W/m -1,4 C -0,3 C 0,0 km/h (0 Bft) 100 %
12.02.2016 05:40 -0,4 C -0,4 C -0,3 C 92 % 1005,5 hPa 0,0 l/m 0,0 km/h (0 Bft) N 0 0 min 0,000 mm 0 W/m -1,5 C -0,4 C 0,0 km/h (0 Bft) 100 %
12.02.2016 05:50 -0,6 C -0,6 C -0,4 C 92 % 1005,4 hPa 0,0 l/m 0,0 km/h (0 Bft) N 0 0 min 0,000 mm 0 W/m -1,7 C -0,6 C 0,0 km/h (0 Bft) 100 %
12.02.2016 06:00 -0,9 C -0,9 C -0,6 C 92 % 1005,4 hPa 0,0 l/m 0,0 km/h (0 Bft) N 0 0 min 0,000 mm 0 W/m -2,0 C -0,9 C 0,0 km/h (0 Bft) 99 %
12.02.2016 06:10 -1,2 C -1,2 C -0,9 C 92 % 1005,2 hPa 0,0 l/m 0,0 km/h (0 Bft) N 0 0 min 0,000 mm 0 W/m -2,3 C -1,2 C 0,0 km/h (0 Bft) 99 %
12.02.2016 06:20 -1,3 C -1,3 C -1,2 C 92 % 1005,1 hPa 0,0 l/m 0,0 km/h (0 Bft) N 0 0 min 0,000 mm 0 W/m -2,4 C -1,3 C 0,0 km/h (0 Bft) 99 %
12.02.2016 06:30 -1,3 C -1,3 C -1,3 C 92 % 1005,0 hPa 0,0 l/m 0,0 km/h (0 Bft) N 0 0 min 0,000 mm 0 W/m -2,4 C -1,3 C 0,0 km/h (0 Bft) 99 %
12.02.2016 06:40 -1,3 C -1,3 C -1,3 C 92 % 1005,0 hPa 0,0 l/m 0,0 km/h (0 Bft) W-SW 247 0 min 0,000 mm 0 W/m -2,4 C -1,3 C 1,6 km/h (1 Bft) 98 %
12.02.2016 06:50 -1,4 C -1,4 C -1,3 C 92 % 1005,2 hPa 0,0 l/m 0,0 km/h (0 Bft) N 0 0 min 0,000 mm 0 W/m -2,5 C -1,4 C 0,0 km/h (0 Bft) 98 %
12.02.2016 07:00 -1,4 C -1,4 C -1,3 C 92 % 1004,9 hPa 0,0 l/m 0,0 km/h (0 Bft) W-SW 247 0 min 0,000 mm 0 W/m -2,5 C -1,4 C 1,6 km/h (1 Bft) 97 %
12.02.2016 07:10 -1,3 C -1,4 C -1,3 C 92 % 1004,8 hPa 0,0 l/m 0,0 km/h (0 Bft) W-SW 247 0 min 0,000 mm 0 W/m -2,4 C -1,3 C 1,6 km/h (1 Bft) 97 %
12.02.2016 07:20 -1,3 C -1,3 C -1,3 C 92 % 1004,8 hPa 0,0 l/m 0,0 km/h (0 Bft) W-SW 247 0 min 0,000 mm 0 W/m -2,4 C -1,3 C 1,6 km/h (1 Bft) 98 %
12.02.2016 07:30 -1,3 C -1,3 C -1,3 C 92 % 1004,8 hPa 0,0 l/m 0,0 km/h (0 Bft) N 0 0 min 0,000 mm 0 W/m -2,4 C -1,3 C 0,0 km/h (0 Bft) 97 %
12.02.2016 07:40 -1,3 C -1,3 C -1,3 C 92 % 1004,7 hPa 0,0 l/m 0,0 km/h (0 Bft) N 0 0 min 0,000 mm 0 W/m -2,4 C -1,3 C 0,0 km/h (0 Bft) 98 %
12.02.2016 07:50 -1,2 C -1,3 C -1,2 C 92 % 1004,7 hPa 0,0 l/m 0,0 km/h (0 Bft) N 0 0 min 0,000 mm 0 W/m -2,3 C -1,2 C 0,0 km/h (0 Bft) 85 %
12.02.2016 08:00 -1,1 C -1,2 C -1,1 C 92 % 1004,5 hPa 0,0 l/m 0,0 km/h (0 Bft) N 0 0 min 0,000 mm 5 W/m -2,2 C -1,1 C 0,0 km/h (0 Bft) 97 %
12.02.2016 08:10 -0,8 C -1,1 C -0,8 C 92 % 1004,5 hPa 0,0 l/m 0,0 km/h (0 Bft) N 0 0 min 0,000 mm 9 W/m -1,9 C -0,8 C 0,0 km/h (0 Bft) 98 %
12.02.2016 08:20 -0,6 C -0,8 C -0,6 C 92 % 1004,4 hPa 0,0 l/m 0,0 km/h (0 Bft) N 0 0 min 0,000 mm 11 W/m -1,7 C -0,6 C 0,0 km/h (0 Bft) 97 %
12.02.2016 08:30 -0,5 C -0,6 C -0,5 C 92 % 1004,2 hPa 0,0 l/m 0,0 km/h (0 Bft) N 0 0 min 0,000 mm 23 W/m -1,6 C -0,5 C 0,0 km/h (0 Bft) 98 %
12.02.2016 08:40 -0,5 C -0,6 C -0,5 C 92 % 1004,0 hPa 0,0 l/m 0,0 km/h (0 Bft) N 0 0 min 0,000 mm 30 W/m -1,6 C -0,5 C 0,0 km/h (0 Bft) 97 %
12.02.2016 08:50 -0,4 C -0,5 C -0,4 C 92 % 1004,1 hPa 0,0 l/m 0,0 km/h (0 Bft) N 0 0 min 0,000 mm 30 W/m -1,5 C -0,4 C 0,0 km/h (0 Bft) 98 %
12.02.2016 09:00 -0,3 C -0,4 C -0,3 C 92 % 1004,0 hPa 0,0 l/m 0,0 km/h (0 Bft) N 0 0 min 0,000 mm 26 W/m -1,4 C -0,3 C 0,0 km/h (0 Bft) 89 %
12.02.2016 09:10 -0,2 C -0,3 C -0,2 C 92 % 1003,8 hPa 0,0 l/m 0,0 km/h (0 Bft) N 0 0 min 0,000 mm 44 W/m -1,3 C -0,2 C 0,0 km/h (0 Bft) 98 %
12.02.2016 09:20 0,1 C -0,2 C 0,1 C 92 % 1003,7 hPa 0,0 l/m 0,0 km/h (0 Bft) N 0 0 min 0,000 mm 47 W/m -1,0 C 0,1 C 0,0 km/h (0 Bft) 98 %
12.02.2016 09:30 0,4 C 0,1 C 0,4 C 92 % 1003,6 hPa 0,0 l/m 0,0 km/h (0 Bft) N 0 0 min 0,000 mm 54 W/m -0,7 C 0,4 C 0,0 km/h (0 Bft) 97 %
12.02.2016 09:40 0,6 C 0,4 C 0,6 C 92 % 1003,4 hPa 0,0 l/m 0,0 km/h (0 Bft) W-SW 247 0 min 0,000 mm 56 W/m -0,5 C 0,6 C 1,6 km/h (1 Bft) 98 %
12.02.2016 09:50 0,6 C 0,6 C 0,7 C 92 % 1003,1 hPa 0,0 l/m 0,0 km/h (0 Bft) W-SW 247 0 min 0,000 mm 139 W/m -0,5 C 0,6 C 3,2 km/h (1 Bft) 97 %
12.02.2016 10:00 0,9 C 0,6 C 0,9 C 92 % 1003,0 hPa 0,0 l/m 0,0 km/h (0 Bft) N 0 10 min 0,025 mm 294 W/m -0,2 C 0,9 C 0,0 km/h (0 Bft) 98 %
12.02.2016 10:10 1,8 C 0,9 C 1,8 C 92 % 1002,9 hPa 0,0 l/m 0,0 km/h (0 Bft) NW 315 10 min 0,000 mm 290 W/m 0,6 C 1,8 C 1,6 km/h (1 Bft) 97 %
12.02.2016 10:20 2,4 C 1,8 C 2,4 C 92 % 1002,9 hPa 0,0 l/m 0,0 km/h (0 Bft) NW 315 10 min 0,000 mm 381 W/m 1,2 C 2,4 C 1,6 km/h (1 Bft) 99 %
12.02.2016 10:30 2,5 C 2,4 C 2,5 C 92 % 1002,9 hPa 0,0 l/m 0,0 km/h (0 Bft) N 0 10 min 0,000 mm 257 W/m 1,3 C 2,5 C 0,0 km/h (0 Bft) 94 %
12.02.2016 10:40 2,7 C 2,5 C 2,7 C 92 % 1002,7 hPa 0,0 l/m 0,0 km/h (0 Bft) N 0 10 min 0,000 mm 367 W/m 1,5 C 2,7 C 0,0 km/h (0 Bft) 96 %
12.02.2016 10:50 3,4 C 2,7 C 3,4 C 92 % 1002,4 hPa 0,0 l/m 0,0 km/h (0 Bft) NO 45 10 min 0,000 mm 385 W/m 2,2 C 3,4 C 4,8 km/h (1 Bft) 100 %
12.02.2016 11:00 4,3 C 3,4 C 4,3 C 91 % 1002,2 hPa 0,0 l/m 0,0 km/h (0 Bft) O-NO 67 10 min 0,102 mm 378 W/m 3,0 C 4,3 C 4,8 km/h (1 Bft) 100 %
12.02.2016 11:10 4,4 C 4,3 C 4,4 C 84 % 1002,0 hPa 0,0 l/m 3,2 km/h (1 Bft) SO 135 10 min 0,000 mm 390 W/m 1,9 C 4,4 C 8,0 km/h (2 Bft) 100 %
12.02.2016 11:20 4,7 C 4,3 C 4,7 C 85 % 1001,9 hPa 0,0 l/m 1,6 km/h (1 Bft) SO 135 10 min 0,000 mm 476 W/m 2,4 C 4,7 C 11,3 km/h (2 Bft) 100 %
12.02.2016 11:30 4,8 C 4,6 C 4,8 C 84 % 1001,7 hPa 0,0 l/m 3,2 km/h (1 Bft) SO 135 10 min 0,000 mm 533 W/m 2,3 C 4,8 C 11,3 km/h (2 Bft) 100 %
12.02.2016 11:40 4,6 C 4,6 C 4,9 C 81 % 1001,6 hPa 0,0 l/m 3,2 km/h (1 Bft) S-SW 202 10 min 0,000 mm 190 W/m 1,6 C 4,6 C 9,7 km/h (2 Bft) 100 %
12.02.2016 11:50 4,1 C 4,1 C 4,6 C 82 % 1001,4 hPa 0,0 l/m 1,6 km/h (1 Bft) SO 135 10 min 0,000 mm 287 W/m 1,3 C 4,1 C 8,0 km/h (2 Bft) 100 %
12.02.2016 12:00 4,3 C 4,1 C 4,3 C 82 % 1001,2 hPa 0,0 l/m 4,8 km/h (1 Bft) S-SO 157 10 min 0,127 mm 575 W/m 1,5 C 4,3 C 11,3 km/h (2 Bft) 100 %
12.02.2016 12:10 4,9 C 4,3 C 4,9 C 80 % 1000,9 hPa 0,0 l/m 4,8 km/h (1 Bft) SO 135 10 min 0,000 mm 596 W/m 1,7 C 4,9 C 14,5 km/h (3 Bft) 100 %
12.02.2016 12:20 5,1 C 4,9 C 5,1 C 77 % 1000,6 hPa 0,0 l/m 4,8 km/h (1 Bft) SO 135 10 min 0,000 mm 601 W/m 1,4 C 5,1 C 17,7 km/h (3 Bft) 100 %
12.02.2016 12:30 5,0 C 4,9 C 5,2 C 79 % 1000,5 hPa 0,0 l/m 3,2 km/h (1 Bft) O-SO 112 10 min 0,000 mm 573 W/m 1,7 C 5,0 C 16,1 km/h (3 Bft) 100 %
12.02.2016 12:40 5,1 C 5,0 C 5,2 C 76 % 1000,2 hPa 0,0 l/m 4,8 km/h (1 Bft) S-SO 157 10 min 0,000 mm 568 W/m 1,2 C 5,1 C 16,1 km/h (3 Bft) 100 %
12.02.2016 12:50 5,4 C 5,1 C 5,4 C 76 % 999,9 hPa 0,0 l/m 4,8 km/h (1 Bft) SO 135 10 min 0,000 mm 490 W/m 1,5 C 5,4 C 12,9 km/h (3 Bft) 100 %
12.02.2016 13:00 5,5 C 5,4 C 5,5 C 74 % 999,7 hPa 0,0 l/m 1,6 km/h (1 Bft) O-SO 112 10 min 0,178 mm 547 W/m 1,2 C 5,5 C 11,3 km/h (2 Bft) 100 %
12.02.2016 13:10 5,5 C 5,4 C 5,5 C 75 % 999,6 hPa 0,0 l/m 3,2 km/h (1 Bft) O 90 10 min 0,000 mm 513 W/m 1,4 C 5,5 C 19,3 km/h (3 Bft) 100 %
12.02.2016 13:20 5,5 C 5,5 C 5,6 C 72 % 999,4 hPa 0,0 l/m 3,2 km/h (1 Bft) O-SO 112 10 min 0,000 mm 510 W/m 0,9 C 5,5 C 14,5 km/h (3 Bft) 100 %
12.02.2016 13:30 5,8 C 5,4 C 5,8 C 75 % 999,3 hPa 0,0 l/m 1,6 km/h (1 Bft) O-SO 112 10 min 0,000 mm 555 W/m 1,7 C 5,8 C 9,7 km/h (2 Bft) 100 %
12.02.2016 13:40 5,6 C 5,6 C 5,8 C 73 % 999,1 hPa 0,0 l/m 4,8 km/h (1 Bft) O-SO 112 10 min 0,000 mm 185 W/m 1,2 C 5,6 C 19,3 km/h (3 Bft) 100 %
12.02.2016 13:50 5,5 C 5,4 C 5,5 C 73 % 998,7 hPa 0,0 l/m 1,6 km/h (1 Bft) SO 135 10 min 0,000 mm 450 W/m 1,1 C 5,5 C 14,5 km/h (3 Bft) 100 %
12.02.2016 14:00 5,8 C 5,5 C 5,8 C 70 % 998,3 hPa 0,0 l/m 3,2 km/h (1 Bft) SO 135 10 min 0,127 mm 462 W/m 0,8 C 5,8 C 16,1 km/h (3 Bft) 100 %
12.02.2016 14:10 6,3 C 5,9 C 6,3 C 71 % 998,1 hPa 0,0 l/m 3,2 km/h (1 Bft) SO 135 10 min 0,000 mm 512 W/m 1,4 C 6,3 C 17,7 km/h (3 Bft) 100 %
12.02.2016 14:20 6,1 C 6,1 C 6,3 C 71 % 997,8 hPa 0,0 l/m 1,6 km/h (1 Bft) SO 135 10 min 0,000 mm 223 W/m 1,2 C 6,1 C 11,3 km/h (2 Bft) 100 %
12.02.2016 14:30 5,9 C 5,9 C 6,1 C 69 % 997,6 hPa 0,0 l/m 1,6 km/h (1 Bft) SO 135 10 min 0,000 mm 237 W/m 0,7 C 5,9 C 14,5 km/h (3 Bft) 100 %
12.02.2016 14:40 5,8 C 5,8 C 5,9 C 72 % 997,4 hPa 0,0 l/m 1,6 km/h (1 Bft) O-SO 112 10 min 0,000 mm 220 W/m 1,2 C 5,8 C 8,0 km/h (2 Bft) 100 %
12.02.2016 14:50 6,3 C 5,8 C 6,3 C 71 % 997,1 hPa 0,0 l/m 1,6 km/h (1 Bft) NO 45 10 min 0,000 mm 380 W/m 1,4 C 6,3 C 14,5 km/h (3 Bft) 100 %
12.02.2016 15:00 6,3 C 6,3 C 6,3 C 69 % 997,0 hPa 0,0 l/m 1,6 km/h (1 Bft) O-SO 112 10 min 0,102 mm 302 W/m 1,0 C 6,3 C 9,7 km/h (2 Bft) 100 %
12.02.2016 15:10 6,1 C 6,1 C 6,3 C 69 % 996,8 hPa 0,0 l/m 0,0 km/h (0 Bft) O 90 0 min 0,000 mm 148 W/m 0,8 C 6,1 C 6,4 km/h (2 Bft) 100 %
12.02.2016 15:20 5,8 C 5,8 C 6,1 C 68 % 996,7 hPa 0,0 l/m 1,6 km/h (1 Bft) SO 135 0 min 0,000 mm 91 W/m 0,4 C 5,8 C 11,3 km/h (2 Bft) 100 %
12.02.2016 15:30 5,9 C 5,8 C 5,9 C 70 % 996,6 hPa 0,0 l/m 1,6 km/h (1 Bft) SO 135 0 min 0,000 mm 134 W/m 0,9 C 5,9 C 16,1 km/h (3 Bft) 100 %
12.02.2016 15:40 6,1 C 5,9 C 6,2 C 65 % 996,6 hPa 0,0 l/m 4,8 km/h (1 Bft) SO 135 0 min 0,000 mm 113 W/m 0,0 C 6,1 C 19,3 km/h (3 Bft) 100 %
12.02.2016 15:50 6,0 C 5,9 C 6,1 C 67 % 996,4 hPa 0,0 l/m 3,2 km/h (1 Bft) O-SO 112 0 min 0,000 mm 116 W/m 0,3 C 6,0 C 20,9 km/h (4 Bft) 100 %
12.02.2016 16:00 5,8 C 5,8 C 6,0 C 70 % 996,2 hPa 0,0 l/m 1,6 km/h (1 Bft) O-SO 112 0 min 0,051 mm 113 W/m 0,8 C 5,8 C 12,9 km/h (3 Bft) 100 %
12.02.2016 16:10 5,5 C 5,5 C 5,8 C 69 % 996,2 hPa 0,0 l/m 3,2 km/h (1 Bft) O-SO 112 0 min 0,000 mm 83 W/m 0,3 C 5,5 C 17,7 km/h (3 Bft) 99 %
12.02.2016 16:20 5,1 C 5,1 C 5,4 C 69 % 996,0 hPa 0,0 l/m 1,6 km/h (1 Bft) O-SO 112 0 min 0,000 mm 54 W/m -0,1 C 5,1 C 9,7 km/h (2 Bft) 100 %
12.02.2016 16:30 4,9 C 4,9 C 5,1 C 71 % 995,9 hPa 0,0 l/m 1,6 km/h (1 Bft) O 90 0 min 0,000 mm 51 W/m 0,1 C 4,9 C 12,9 km/h (3 Bft) 100 %
12.02.2016 16:40 4,8 C 4,8 C 4,9 C 73 % 995,7 hPa 0,0 l/m 0,0 km/h (0 Bft) NO 45 0 min 0,000 mm 44 W/m 0,4 C 4,8 C 9,7 km/h (2 Bft) 100 %
12.02.2016 16:50 4,7 C 4,7 C 4,8 C 72 % 995,7 hPa 0,0 l/m 0,0 km/h (0 Bft) O-NO 67 0 min 0,000 mm 37 W/m 0,1 C 4,7 C 4,8 km/h (1 Bft) 97 %
12.02.2016 17:00 4,7 C 4,7 C 4,7 C 73 % 995,6 hPa 0,0 l/m 0,0 km/h (0 Bft) O-NO 67 0 min 0,025 mm 26 W/m 0,3 C 4,7 C 6,4 km/h (2 Bft) 98 %
12.02.2016 17:10 4,7 C 4,7 C 4,7 C 73 % 995,6 hPa 0,0 l/m 0,0 km/h (0 Bft) SO 135 0 min 0,000 mm 19 W/m 0,3 C 4,7 C 3,2 km/h (1 Bft) 98 %
12.02.2016 17:20 4,8 C 4,7 C 4,8 C 74 % 995,4 hPa 0,0 l/m 0,0 km/h (0 Bft) O 90 0 min 0,000 mm 16 W/m 0,6 C 4,8 C 6,4 km/h (2 Bft) 98 %
12.02.2016 17:30 4,7 C 4,7 C 4,8 C 73 % 995,3 hPa 0,0 l/m 0,0 km/h (0 Bft) NO 45 0 min 0,000 mm 7 W/m 0,3 C 4,7 C 4,8 km/h (1 Bft) 98 %
12.02.2016 17:50 4,3 C 4,3 C 4,8 C 74 % 995,2 hPa 0,0 l/m 0,2 km/h (0 Bft) NO 55 0 min 0,000 mm 0 W/m 0,1 C 4,3 C 4,8 km/h (1 Bft) 100 %
12.02.2016 18:00 4,2 C 4,2 C 4,3 C 74 % 995,2 hPa 0,0 l/m 0,4 km/h (0 Bft) NO 44 0 min 0,000 mm 0 W/m -0,0 C 4,2 C 6,4 km/h (2 Bft) 100 %
12.02.2016 18:10 4,2 C 4,2 C 4,2 C 75 % 995,2 hPa 0,0 l/m 0,3 km/h (0 Bft) O-NO 63 0 min 0,000 mm 0 W/m 0,2 C 4,2 C 4,8 km/h (1 Bft) 100 %
12.02.2016 18:20 4,2 C 4,2 C 4,3 C 75 % 995,2 hPa 0,0 l/m 0,2 km/h (0 Bft) O-NO 60 0 min 0,000 mm 0 W/m 0,2 C 4,2 C 4,8 km/h (1 Bft) 91 %
12.02.2016 18:30 4,3 C 4,2 C 4,3 C 75 % 995,1 hPa 0,0 l/m 0,0 km/h (0 Bft) O-NO 60 0 min 0,000 mm 0 W/m 0,3 C 4,3 C 0,0 km/h (0 Bft) 100 %
12.02.2016 18:40 4,2 C 4,2 C 4,3 C 76 % 994,9 hPa 0,0 l/m 0,3 km/h (0 Bft) N-NO 26 0 min 0,000 mm 0 W/m 0,4 C 4,2 C 6,4 km/h (2 Bft) 100 %
12.02.2016 18:50 4,1 C 4,1 C 4,2 C 76 % 995,0 hPa 0,0 l/m 0,7 km/h (0 Bft) NO 49 0 min 0,000 mm 0 W/m 0,3 C 4,1 C 6,4 km/h (2 Bft) 100 %
12.02.2016 19:00 4,0 C 4,0 C 4,1 C 76 % 994,9 hPa 0,0 l/m 0,7 km/h (0 Bft) N-NO 22 0 min 0,025 mm 0 W/m 0,2 C 4,0 C 11,3 km/h (2 Bft) 100 %
12.02.2016 19:10 3,8 C 3,8 C 4,0 C 76 % 994,9 hPa 0,0 l/m 0,0 km/h (0 Bft) NO 46 0 min 0,000 mm 0 W/m -0,0 C 3,8 C 1,6 km/h (1 Bft) 100 %
12.02.2016 19:20 3,6 C 3,6 C 3,8 C 78 % 994,9 hPa 0,0 l/m 0,0 km/h (0 Bft) NO 41 0 min 0,000 mm 0 W/m 0,1 C 3,6 C 1,6 km/h (1 Bft) 100 %
12.02.2016 19:30 3,4 C 3,4 C 3,6 C 78 % 994,9 hPa 0,0 l/m 0,3 km/h (0 Bft) NO 34 0 min 0,000 mm 0 W/m -0,1 C 3,4 C 6,4 km/h (2 Bft) 100 %
12.02.2016 19:40 3,2 C 3,2 C 3,4 C 79 % 994,8 hPa 0,0 l/m 0,4 km/h (0 Bft) N-NO 28 0 min 0,000 mm 0 W/m -0,1 C 3,2 C 6,4 km/h (2 Bft) 100 %
12.02.2016 19:50 3,1 C 3,1 C 3,2 C 79 % 994,9 hPa 0,0 l/m 0,2 km/h (0 Bft) N-NO 28 0 min 0,000 mm 0 W/m -0,2 C 3,1 C 4,8 km/h (1 Bft) 100 %
12.02.2016 20:00 3,0 C 3,0 C 3,1 C 79 % 994,8 hPa 0,0 l/m 0,3 km/h (0 Bft) NO 38 0 min 0,000 mm 0 W/m -0,3 C 3,0 C 3,2 km/h (1 Bft) 100 %
12.02.2016 20:10 2,9 C 2,9 C 3,0 C 79 % 994,8 hPa 0,0 l/m 0,2 km/h (0 Bft) O-NO 58 0 min 0,000 mm 0 W/m -0,4 C 2,9 C 6,4 km/h (2 Bft) 100 %
12.02.2016 20:20 2,9 C 2,9 C 2,9 C 79 % 994,8 hPa 0,0 l/m 0,0 km/h (0 Bft) O-NO 61 0 min 0,000 mm 0 W/m -0,4 C 2,9 C 1,6 km/h (1 Bft) 100 %
12.02.2016 20:30 2,9 C 2,9 C 2,9 C 78 % 994,8 hPa 0,0 l/m 0,6 km/h (0 Bft) O-SO 103 0 min 0,000 mm 0 W/m -0,5 C 2,9 C 6,4 km/h (2 Bft) 100 %
12.02.2016 20:40 2,8 C 2,8 C 2,9 C 78 % 994,8 hPa 0,0 l/m 0,7 km/h (0 Bft) O 94 0 min 0,000 mm 0 W/m -0,6 C 2,8 C 8,0 km/h (2 Bft) 100 %
12.02.2016 20:50 2,8 C 2,8 C 2,8 C 78 % 994,8 hPa 0,0 l/m 0,7 km/h (0 Bft) O 91 0 min 0,000 mm 0 W/m -0,6 C 2,8 C 4,8 km/h (1 Bft) 91 %
12.02.2016 21:00 2,8 C 2,8 C 2,8 C 78 % 994,8 hPa 0,0 l/m 0,8 km/h (0 Bft) NO 53 0 min 0,000 mm 0 W/m -0,6 C 2,8 C 6,4 km/h (2 Bft) 100 %
12.02.2016 21:10 2,9 C 2,8 C 2,9 C 78 % 994,6 hPa 0,0 l/m 0,0 km/h (0 Bft) O 90 0 min 0,000 mm 0 W/m -0,5 C 2,9 C 6,4 km/h (2 Bft) 97 %
12.02.2016 21:20 3,1 C 2,9 C 3,1 C 78 % 994,6 hPa 0,0 l/m 0,0 km/h (0 Bft) N 0 0 min 0,000 mm 0 W/m -0,4 C 3,1 C 0,0 km/h (0 Bft) 98 %
12.02.2016 21:30 3,1 C 3,1 C 3,1 C 78 % 994,5 hPa 0,0 l/m 0,0 km/h (0 Bft) N 0 0 min 0,000 mm 0 W/m -0,4 C 3,1 C 0,0 km/h (0 Bft) 98 %
12.02.2016 21:40 3,0 C 3,0 C 3,1 C 79 % 994,4 hPa 0,0 l/m 0,0 km/h (0 Bft) O-NO 67 0 min 0,000 mm 0 W/m -0,3 C 3,0 C 4,8 km/h (1 Bft) 97 %
12.02.2016 21:50 2,9 C 2,9 C 3,1 C 80 % 994,3 hPa 0,0 l/m 0,0 km/h (0 Bft) NO 45 0 min 0,000 mm 0 W/m -0,2 C 2,9 C 4,8 km/h (1 Bft) 98 %
12.02.2016 22:00 2,8 C 2,8 C 2,9 C 81 % 994,3 hPa 0,0 l/m 0,0 km/h (0 Bft) NO 45 0 min 0,000 mm 0 W/m -0,1 C 2,8 C 1,6 km/h (1 Bft) 97 %
12.02.2016 22:10 2,6 C 2,6 C 2,8 C 82 % 994,2 hPa 0,0 l/m 0,0 km/h (0 Bft) N 0 0 min 0,000 mm 0 W/m -0,2 C 2,6 C 0,0 km/h (0 Bft) 98 %
12.02.2016 22:20 2,3 C 2,3 C 2,6 C 83 % 994,2 hPa 0,0 l/m 0,0 km/h (0 Bft) NO 45 0 min 0,000 mm 0 W/m -0,3 C 2,3 C 1,6 km/h (1 Bft) 96 %
12.02.2016 22:30 2,2 C 2,2 C 2,3 C 83 % 994,1 hPa 0,0 l/m 0,0 km/h (0 Bft) NO 45 0 min 0,000 mm 0 W/m -0,4 C 2,2 C 4,8 km/h (1 Bft) 98 %
12.02.2016 22:40 2,1 C 2,0 C 2,2 C 83 % 994,1 hPa 0,0 l/m 0,0 km/h (0 Bft) NO 45 0 min 0,000 mm 0 W/m -0,5 C 2,1 C 4,8 km/h (1 Bft) 97 %
12.02.2016 22:50 2,0 C 1,9 C 2,0 C 84 % 994,0 hPa 0,0 l/m 0,0 km/h (0 Bft) NO 45 0 min 0,000 mm 0 W/m -0,4 C 2,0 C 4,8 km/h (1 Bft) 97 %
12.02.2016 23:00 2,1 C 1,9 C 2,1 C 84 % 993,9 hPa 0,0 l/m 0,0 km/h (0 Bft) N-NO 22 0 min 0,000 mm 0 W/m -0,3 C 2,1 C 8,0 km/h (2 Bft) 98 %
12.02.2016 23:10 2,2 C 2,1 C 2,2 C 83 % 993,8 hPa 0,0 l/m 0,0 km/h (0 Bft) N-NO 22 0 min 0,000 mm 0 W/m -0,4 C 2,2 C 8,0 km/h (2 Bft) 88 %
12.02.2016 23:20 2,3 C 2,2 C 2,3 C 83 % 993,8 hPa 0,0 l/m 0,0 km/h (0 Bft) NO 45 0 min 0,000 mm 0 W/m -0,3 C 2,3 C 3,2 km/h (1 Bft) 98 %
12.02.2016 23:30 2,2 C 2,2 C 2,3 C 83 % 993,7 hPa 0,0 l/m 1,6 km/h (1 Bft) NO 45 0 min 0,000 mm 0 W/m -0,4 C 2,2 C 6,4 km/h (2 Bft) 97 %
12.02.2016 23:40 2,2 C 2,2 C 2,2 C 83 % 993,7 hPa 0,0 l/m 0,0 km/h (0 Bft) N-NO 22 0 min 0,000 mm 0 W/m -0,4 C 2,2 C 8,0 km/h (2 Bft) 99 %
12.02.2016 23:50 2,1 C 2,1 C 2,2 C 84 % 993,5 hPa 0,0 l/m 0,0 km/h (0 Bft) N-NO 22 0 min 0,000 mm 0 W/m -0,3 C 2,1 C 3,2 km/h (1 Bft) 100 %
_ Min-Zeit 06:50 06:50 06:30 15:40 23:50 - 00:00 - - - - - 06:50 06:50 00:00 07:50
Minimum _ -1,4 C -1,4 C -1,3 C 65 % 993,5 hPa - 0,0 km/h (0 Bft) - - - - - -2,5 C -1,4 C 0,0 km/h (0 Bft) 85 %
_ Max-Zeit 14:10 15:00 14:10 00:00 00:00 00:00 12:00 - - 10:00 13:00 12:20 11:00 14:10 15:50 00:00
Maximum _ 6,3 C 6,3 C 6,3 C 92 % 1006,3 hPa 0,0 l/m 4,8 km/h
S-SO (1 Bft)
- - 10 min 0,178 mm 601 W/m 3,0 C 6,3 C 20,9 km/h
SO (4 Bft)
100 %
Durchschnitt _ 2,5 C 2,4 C 2,6 C 84 % 1000,5 hPa #0,0 l/m 0,7 km/h (0 Bft) SO - #5:10 h #0,762 mm 246 W/m -0,1 C 2,5 C 4,8 km/h (1 Bft) 99 %
PRIVATE WETTERSTATION BILLIGHEIM-ALLFELD - www.neckar-odenwald-wetter.de - Holger Sonntag